createdAt,value
2019-02-15T00:02:27.345Z,56.47
2019-02-15T00:05:00.739Z,56.79
2019-02-15T00:07:35.281Z,56.79
2019-02-15T00:10:08.646Z,56.71
2019-02-15T00:12:42.129Z,56.81
2019-02-15T00:15:15.653Z,56.94
2019-02-15T00:18:10.650Z,56.93
2019-02-15T00:21:05.524Z,56.87
2019-02-15T00:23:39.904Z,56.52
2019-02-15T00:26:13.138Z,56.52
2019-02-15T00:28:46.734Z,56.42
2019-02-15T00:31:22.288Z,56.42
2019-02-15T00:33:55.700Z,56.92
2019-02-15T00:36:29.290Z,56.92
2019-02-15T00:39:02.748Z,56.49
2019-02-15T00:41:37.286Z,56.65
2019-02-15T00:47:08.468Z,56.50
2019-02-15T00:49:54.136Z,56.37
2019-02-15T00:52:46.368Z,56.31
2019-02-15T00:55:38.388Z,56.31
2019-02-15T00:58:33.464Z,56.53
2019-02-15T01:01:31.478Z,56.10
2019-02-15T01:04:13.704Z,55.89
2019-02-15T01:06:55.293Z,55.29
2019-02-15T01:09:45.085Z,55.17
2019-02-15T01:12:20.882Z,55.17
2019-02-15T01:14:54.328Z,55.56
2019-02-15T01:17:27.656Z,55.64
2019-02-15T01:20:01.134Z,55.79
2019-02-15T01:22:34.497Z,55.79
2019-02-15T01:25:08.339Z,55.99
2019-02-15T01:28:06.538Z,56.10
2019-02-15T01:31:07.740Z,56.10
2019-02-15T01:34:04.109Z,55.88
2019-02-15T01:36:56.111Z,55.92
2019-02-15T01:39:44.775Z,56.32
2019-02-15T01:42:34.140Z,56.54
2019-02-15T01:45:32.434Z,56.41
2019-02-15T01:48:05.729Z,56.37
2019-02-15T01:50:39.091Z,56.59
2019-02-15T01:53:12.515Z,56.68
2019-02-15T01:55:46.158Z,56.68
2019-02-15T01:58:19.674Z,56.49
2019-02-15T02:00:53.257Z,56.19
2019-02-15T02:03:26.764Z,56.18
2019-02-15T02:06:00.286Z,56.18
2019-02-15T02:08:34.290Z,56.04
2019-02-15T02:11:07.658Z,56.09
2019-02-15T02:13:49.274Z,56.09
2019-02-15T02:16:15.089Z,56.30
2019-02-15T02:18:46.703Z,56.61
2019-02-15T02:21:19.958Z,56.78
2019-02-15T02:23:51.868Z,57.26
2019-02-15T02:26:25.111Z,57.63
2019-02-15T02:28:58.340Z,57.63
2019-02-15T02:31:31.670Z,57.66
2019-02-15T02:34:05.146Z,57.66
2019-02-15T02:36:54.931Z,57.59
2019-02-15T02:39:27.294Z,57.61
2019-02-15T02:41:59.346Z,57.74
2019-02-15T02:44:32.702Z,57.66
2019-02-15T02:47:06.107Z,57.66
2019-02-15T02:49:39.363Z,57.75
2019-02-15T02:52:12.681Z,57.75
2019-02-15T02:54:46.124Z,57.75
2019-02-15T02:57:20.391Z,58.11
2019-02-15T02:59:53.966Z,58.11
2019-02-15T03:02:26.024Z,57.87
2019-02-15T03:04:59.294Z,57.99
2019-02-15T03:07:32.641Z,57.98
2019-02-15T03:10:06.286Z,57.93
2019-02-15T03:12:39.701Z,58.16
2019-02-15T03:15:13.307Z,58.16
2019-02-15T03:17:46.722Z,58.40
2019-02-15T03:20:30.413Z,58.44
2019-02-15T03:22:53.850Z,58.44
2019-02-15T03:25:27.273Z,58.39
2019-02-15T03:28:00.763Z,58.43
2019-02-15T03:30:34.173Z,58.43
2019-02-15T03:33:08.666Z,58.61
2019-02-15T03:35:54.615Z,58.96
2019-02-15T03:38:50.916Z,58.92
2019-02-15T03:41:29.295Z,58.83
2019-02-15T03:44:02.643Z,58.01
2019-02-15T03:46:36.951Z,58.01
2019-02-15T03:49:10.646Z,58.24
2019-02-15T03:51:44.212Z,58.16
2019-02-15T03:54:17.603Z,57.96
2019-02-15T03:56:51.289Z,58.10
2019-02-15T03:59:24.745Z,58.19
2019-02-15T04:01:58.338Z,58.57
2019-02-15T04:04:31.677Z,58.71
2019-02-15T04:07:05.118Z,58.71
2019-02-15T04:09:38.285Z,58.68
2019-02-15T04:12:11.947Z,58.93
2019-02-15T04:14:45.323Z,58.93
2019-02-15T04:17:18.689Z,59.10
2019-02-15T04:19:52.129Z,59.10
2019-02-15T04:22:25.280Z,59.34
2019-02-15T04:24:58.793Z,59.45
2019-02-15T04:27:32.292Z,59.45
2019-02-15T04:30:05.927Z,59.37
2019-02-15T04:32:39.328Z,59.37
2019-02-15T04:35:12.972Z,59.43
2019-02-15T04:37:45.286Z,59.53
2019-02-15T04:40:18.310Z,59.60
2019-02-15T04:42:51.886Z,59.56
2019-02-15T04:45:25.284Z,59.56
2019-02-15T04:47:58.890Z,59.50
2019-02-15T04:50:32.299Z,59.50
2019-02-15T04:53:05.673Z,59.57
2019-02-15T04:55:39.170Z,59.57
2019-02-15T04:58:12.301Z,59.57
2019-02-15T05:00:45.677Z,59.74
2019-02-15T05:03:19.688Z,59.74
2019-02-15T05:05:53.324Z,59.88
2019-02-15T05:08:26.790Z,59.87
2019-02-15T05:11:02.288Z,59.99
2019-02-15T05:13:35.706Z,60.04
2019-02-15T05:16:09.282Z,60.04
2019-02-15T05:18:42.647Z,59.81
2019-02-15T05:21:16.125Z,59.81
2019-02-15T05:23:49.642Z,59.86
2019-02-15T05:26:23.116Z,59.86
2019-02-15T05:28:56.676Z,60.10
2019-02-15T05:31:30.303Z,60.15
2019-02-15T05:34:03.723Z,60.20
2019-02-15T05:36:37.258Z,60.20
2019-02-15T05:39:11.723Z,60.18
2019-02-15T05:41:45.125Z,60.18
2019-02-15T05:44:18.745Z,60.29
2019-02-15T05:46:52.143Z,60.29
2019-02-15T05:49:25.662Z,60.28
2019-02-15T05:51:59.376Z,60.28
2019-02-15T05:54:32.715Z,60.17
2019-02-15T05:57:06.292Z,60.32
2019-02-15T05:59:39.723Z,60.53
2019-02-15T06:02:13.280Z,60.55
2019-02-15T06:04:46.636Z,60.08
2019-02-15T06:07:20.283Z,60.08
2019-02-15T06:09:54.663Z,60.05
2019-02-15T06:12:28.069Z,60.05
2019-02-15T06:15:00.168Z,60.47
2019-02-15T06:17:34.911Z,60.76
2019-02-15T06:20:07.696Z,60.85
2019-02-15T06:22:40.949Z,60.77
2019-02-15T06:25:12.824Z,60.87
2019-02-15T06:27:45.935Z,60.96
2019-02-15T06:30:19.141Z,60.97
2019-02-15T06:32:54.627Z,61.33
2019-02-15T06:35:33.017Z,61.33
2019-02-15T06:38:06.253Z,61.23
2019-02-15T06:40:39.330Z,61.27
2019-02-15T06:43:12.651Z,61.09
2019-02-15T06:45:46.278Z,61.09
2019-02-15T06:48:19.757Z,61.41
2019-02-15T06:50:52.919Z,61.41
2019-02-15T06:53:26.337Z,61.36
2019-02-15T06:55:59.943Z,61.28
2019-02-15T06:58:33.283Z,61.28
2019-02-15T07:01:23.943Z,60.71
2019-02-15T07:04:19.282Z,60.71
2019-02-15T07:06:52.685Z,59.90
2019-02-15T07:09:25.948Z,59.90
2019-02-15T07:11:59.285Z,59.54
2019-02-15T07:14:32.801Z,59.34
2019-02-15T07:17:06.279Z,59.34
2019-02-15T07:19:39.670Z,58.93
2019-02-15T07:22:13.282Z,58.93
2019-02-15T07:24:47.310Z,57.76
2019-02-15T07:27:20.932Z,57.76
2019-02-15T07:29:54.312Z,56.62
2019-02-15T07:32:27.773Z,56.08
2019-02-15T07:35:01.248Z,55.66
2019-02-15T07:37:34.761Z,54.72
2019-02-15T07:40:08.704Z,54.72
2019-02-15T07:42:41.936Z,53.92
2019-02-15T07:45:17.349Z,52.84
2019-02-15T07:47:50.678Z,51.49
2019-02-15T07:50:23.936Z,51.49
2019-02-15T07:52:57.641Z,50.92
2019-02-15T07:55:31.169Z,49.26
2019-02-15T07:58:04.591Z,47.54
2019-02-15T08:00:38.377Z,46.11
2019-02-15T08:03:12.166Z,43.45
2019-02-15T08:05:45.621Z,43.12
2019-02-15T08:08:19.882Z,42.61
2019-02-15T08:10:53.279Z,40.54
2019-02-15T08:13:26.636Z,41.94
2019-02-15T08:15:59.947Z,41.94
2019-02-15T08:18:33.137Z,41.64
2019-02-15T08:21:06.638Z,40.85
2019-02-15T08:23:40.270Z,38.74
2019-02-15T08:26:13.697Z,37.31
2019-02-15T08:28:46.946Z,37.31
2019-02-15T08:31:20.319Z,35.06
2019-02-15T08:33:53.783Z,31.56
2019-02-15T08:36:27.280Z,31.56
2019-02-15T08:39:00.752Z,31.05
2019-02-15T08:41:36.246Z,31.05
2019-02-15T08:44:10.302Z,26.64
2019-02-15T08:46:43.749Z,25.45
2019-02-15T08:49:17.293Z,25.45
2019-02-15T08:51:50.694Z,23.67
2019-02-15T08:54:24.118Z,23.67
2019-02-15T08:56:58.624Z,23.58
2019-02-15T08:59:32.939Z,22.42
2019-02-15T09:02:14.282Z,22.42
2019-02-15T09:04:47.696Z,21.99
2019-02-15T09:07:21.277Z,21.99
2019-02-15T09:09:54.632Z,22.96
2019-02-15T09:12:28.316Z,22.96
2019-02-15T09:15:01.775Z,25.28
2019-02-15T09:17:35.347Z,25.17
2019-02-15T09:20:10.657Z,23.30
2019-02-15T09:22:44.337Z,22.12
2019-02-15T09:25:17.865Z,21.55
2019-02-15T09:28:16.072Z,21.89
2019-02-15T09:30:53.278Z,22.44
2019-02-15T09:33:26.716Z,22.04
2019-02-15T09:36:00.271Z,22.04
2019-02-15T09:38:33.698Z,22.54
2019-02-15T09:41:07.271Z,22.54
2019-02-15T09:43:40.625Z,22.78
2019-02-15T09:46:19.910Z,22.78
2019-02-15T09:48:49.273Z,23.41
2019-02-15T09:51:22.859Z,22.50
2019-02-15T09:53:56.278Z,22.69
2019-02-15T09:56:29.706Z,22.54
2019-02-15T09:59:03.306Z,22.54
2019-02-15T10:01:36.728Z,22.92
2019-02-15T10:04:11.379Z,22.86
2019-02-15T10:06:45.080Z,22.86
2019-02-15T10:09:18.601Z,23.40
2019-02-15T10:11:52.271Z,22.64
2019-02-15T10:14:25.892Z,23.06
2019-02-15T10:16:58.258Z,23.06
2019-02-15T10:19:31.322Z,23.01
2019-02-15T10:22:04.669Z,22.97
2019-02-15T10:24:38.269Z,22.97
2019-02-15T10:27:11.699Z,23.21
2019-02-15T10:29:45.284Z,23.21
2019-02-15T10:32:19.719Z,22.99
2019-02-15T10:34:53.260Z,22.99
2019-02-15T10:37:26.889Z,23.20
2019-02-15T10:40:00.327Z,22.67
2019-02-15T10:42:33.868Z,22.25
2019-02-15T10:45:06.596Z,22.25
2019-02-15T10:47:39.932Z,21.84
2019-02-15T10:50:12.035Z,22.02
2019-02-15T10:52:43.706Z,22.36
2019-02-15T10:55:18.267Z,21.80
2019-02-15T10:57:51.737Z,22.39
2019-02-15T11:00:25.127Z,21.65
2019-02-15T11:02:58.621Z,21.20
2019-02-15T11:05:32.279Z,21.20
2019-02-15T11:08:05.610Z,20.73
2019-02-15T11:10:39.346Z,20.73
2019-02-15T11:13:12.872Z,21.18
2019-02-15T11:15:46.274Z,19.14
2019-02-15T11:18:19.628Z,18.46
2019-02-15T11:20:53.267Z,18.46
2019-02-15T11:23:26.732Z,17.24
2019-02-15T11:26:00.290Z,17.24
2019-02-15T11:28:33.723Z,15.95
2019-02-15T11:31:07.295Z,15.95
2019-02-15T11:33:40.872Z,14.92
2019-02-15T11:36:14.036Z,14.33
2019-02-15T11:38:47.627Z,14.38
2019-02-15T11:41:21.265Z,13.55
2019-02-15T11:43:54.758Z,12.92
2019-02-15T11:46:28.336Z,12.92
2019-02-15T11:49:01.927Z,12.53
2019-02-15T11:51:35.318Z,12.53
2019-02-15T11:54:08.734Z,11.90
2019-02-15T11:56:42.273Z,11.90
2019-02-15T11:59:15.714Z,11.21
2019-02-15T12:01:49.122Z,11.21
2019-02-15T12:04:22.739Z,10.06
2019-02-15T12:06:56.261Z,10.53
2019-02-15T12:09:30.127Z,10.31
2019-02-15T12:12:10.454Z,10.31
2019-02-15T12:14:38.714Z,9.81
2019-02-15T12:17:12.275Z,9.81
2019-02-15T12:19:45.652Z,8.94
2019-02-15T12:22:19.276Z,8.94
2019-02-15T12:24:52.930Z,9.10
2019-02-15T12:27:26.271Z,9.10
2019-02-15T12:29:59.774Z,8.31
2019-02-15T12:32:33.265Z,8.31
2019-02-15T12:35:06.891Z,8.26
2019-02-15T12:37:40.318Z,8.26
2019-02-15T12:40:14.332Z,7.69
2019-02-15T12:42:47.701Z,7.54
2019-02-15T12:45:21.293Z,7.54
2019-02-15T12:47:55.149Z,7.27
2019-02-15T12:50:28.618Z,7.27
2019-02-15T12:53:02.091Z,7.41
2019-02-15T12:55:36.570Z,7.02
2019-02-15T13:00:54.441Z,6.98
2019-02-15T13:03:27.802Z,6.91
2019-02-15T13:06:01.023Z,6.60
2019-02-15T13:08:32.864Z,6.80
2019-02-15T13:11:06.321Z,6.68
2019-02-15T13:13:39.688Z,6.66
2019-02-15T13:16:13.512Z,6.71
2019-02-15T13:18:47.258Z,6.23
2019-02-15T13:21:20.729Z,6.21
2019-02-15T13:23:54.275Z,6.21
2019-02-15T13:26:27.781Z,6.29
2019-02-15T13:28:59.842Z,6.29
2019-02-15T13:31:33.314Z,6.69
2019-02-15T13:34:06.701Z,7.37
2019-02-15T13:36:39.975Z,8.33
2019-02-15T13:39:13.322Z,9.42
2019-02-15T13:41:46.698Z,10.77
2019-02-15T13:44:20.277Z,10.77
2019-02-15T13:46:54.677Z,10.71
2019-02-15T13:49:29.282Z,10.71
2019-02-15T13:52:02.647Z,9.72
2019-02-15T13:54:36.071Z,9.72
2019-02-15T13:57:09.279Z,9.15
2019-02-15T13:59:42.783Z,8.95
2019-02-15T14:02:16.293Z,8.95
2019-02-15T14:04:49.882Z,9.10
2019-02-15T14:07:23.725Z,8.93
2019-02-15T14:09:57.277Z,8.96
2019-02-15T14:12:31.708Z,9.68
2019-02-15T14:15:05.650Z,9.68
2019-02-15T14:17:45.267Z,10.36
2019-02-15T14:20:14.277Z,10.33
2019-02-15T14:22:47.859Z,11.62
2019-02-15T14:25:21.276Z,11.62
2019-02-15T14:27:54.704Z,12.96
2019-02-15T14:30:28.205Z,12.96
2019-02-15T14:33:02.282Z,13.66
2019-02-15T14:35:36.941Z,14.03
2019-02-15T14:38:12.882Z,14.03
2019-02-15T14:42:27.751Z,14.66
2019-02-15T14:45:01.111Z,15.25
2019-02-15T14:47:34.697Z,16.14
2019-02-15T14:50:08.697Z,16.14
2019-02-15T14:52:42.143Z,16.75
2019-02-15T14:55:15.317Z,16.75
2019-02-15T14:57:48.692Z,16.61
2019-02-15T15:00:22.110Z,16.75
2019-02-15T15:02:55.335Z,17.60
2019-02-15T15:05:28.664Z,18.34
2019-02-15T15:08:02.273Z,18.34
2019-02-15T15:10:35.670Z,17.40
2019-02-15T15:13:09.340Z,17.40
2019-02-15T15:15:43.124Z,17.10
2019-02-15T15:18:16.666Z,17.10
2019-02-15T15:20:50.298Z,17.39
2019-02-15T15:23:23.949Z,17.95
2019-02-15T15:25:55.876Z,18.63
2019-02-15T15:28:29.280Z,20.24
2019-02-15T15:31:02.886Z,21.67
2019-02-15T15:33:35.804Z,21.67
2019-02-15T15:36:09.289Z,21.78
2019-02-15T15:38:42.657Z,23.03
2019-02-15T15:41:16.278Z,23.03
2019-02-15T15:43:49.719Z,24.64
2019-02-15T15:46:24.300Z,24.64
2019-02-15T15:48:58.133Z,27.26
2019-02-15T15:51:31.669Z,27.26
2019-02-15T15:54:06.364Z,27.83
2019-02-15T15:56:39.707Z,28.16
2019-02-15T15:59:13.125Z,28.42
2019-02-15T16:01:46.704Z,28.96
2019-02-15T16:04:20.264Z,29.42
2019-02-15T16:06:53.694Z,30.36
2019-02-15T16:09:27.253Z,30.36
2019-02-15T16:12:00.772Z,30.94
2019-02-15T16:14:36.303Z,30.94
2019-02-15T16:17:09.701Z,31.94
2019-02-15T16:19:49.199Z,31.94
2019-02-15T16:22:19.268Z,32.74
2019-02-15T16:24:53.947Z,34.83
2019-02-15T16:27:26.031Z,34.83
2019-02-15T16:29:58.904Z,35.70
2019-02-15T16:32:33.271Z,36.13
2019-02-15T16:35:07.189Z,35.38
2019-02-15T16:37:40.655Z,35.38
2019-02-15T16:40:15.072Z,36.29
2019-02-15T16:42:48.274Z,37.65
2019-02-15T16:45:23.435Z,38.24
2019-02-15T16:47:56.782Z,39.60
2019-02-15T16:52:14.787Z,40.04
2019-02-15T16:54:48.280Z,40.04
2019-02-15T16:57:22.786Z,39.18
2019-02-15T16:59:56.287Z,39.18
2019-02-15T17:02:29.653Z,39.99
2019-02-15T17:05:04.255Z,39.99
2019-02-15T17:07:38.109Z,41.00
2019-02-15T17:10:12.309Z,41.40
2019-02-15T17:12:45.942Z,41.40
2019-02-15T17:16:47.945Z,41.88
2019-02-15T17:19:21.453Z,42.32
2019-02-15T17:21:55.263Z,42.32
2019-02-15T17:24:28.943Z,42.62
2019-02-15T17:27:01.282Z,42.62
2019-02-15T17:29:34.743Z,42.65
2019-02-15T17:32:08.274Z,42.65
2019-02-15T17:34:44.900Z,43.25
2019-02-15T17:37:18.527Z,43.04
2019-02-15T17:39:52.276Z,43.55
2019-02-15T17:42:26.136Z,44.68
2019-02-15T17:44:59.665Z,44.62
2019-02-15T17:47:33.424Z,44.62
2019-02-15T17:50:07.437Z,44.65
2019-02-15T17:52:40.946Z,44.40
2019-02-15T17:55:13.303Z,44.83
2019-02-15T17:57:46.763Z,44.79
2019-02-15T18:00:22.575Z,44.79
2019-02-15T18:02:55.981Z,44.66
2019-02-15T18:05:28.618Z,45.16
2019-02-15T18:08:02.276Z,45.20
2019-02-15T18:10:35.649Z,44.75
2019-02-15T18:13:09.144Z,44.75
2019-02-15T18:15:42.933Z,44.88
2019-02-15T18:18:15.138Z,44.88
2019-02-15T18:20:48.355Z,44.87
2019-02-15T18:23:21.894Z,45.33
2019-02-15T18:25:55.283Z,45.32
2019-02-15T18:28:28.732Z,45.52
2019-02-15T18:31:02.315Z,45.52
2019-02-15T18:33:35.939Z,46.31
2019-02-15T18:36:07.858Z,46.31
2019-02-15T18:38:41.264Z,46.23
2019-02-15T18:41:14.764Z,46.33
2019-02-15T18:43:48.287Z,46.33
2019-02-15T18:49:05.867Z,46.11
2019-02-15T18:51:39.398Z,46.11
2019-02-15T18:54:13.695Z,46.27
2019-02-15T18:56:47.265Z,46.50
2019-02-15T18:59:20.771Z,47.29
2019-02-15T19:01:54.284Z,47.29
2019-02-15T19:04:27.693Z,47.20
2019-02-15T19:07:05.646Z,47.20
2019-02-15T19:09:39.073Z,47.06
2019-02-15T19:12:13.155Z,46.89
2019-02-15T19:14:46.717Z,47.32
2019-02-15T19:17:19.939Z,47.32
2019-02-15T19:19:53.270Z,47.57
2019-02-15T19:22:26.668Z,47.59
2019-02-15T19:25:00.048Z,47.59
2019-02-15T19:27:33.307Z,48.24
2019-02-15T19:30:08.276Z,48.10
2019-02-15T19:32:41.818Z,48.42
2019-02-15T19:35:17.479Z,48.42
2019-02-15T19:37:53.587Z,48.24
2019-02-15T19:40:26.931Z,48.01
2019-02-15T19:42:58.852Z,48.03
2019-02-15T19:45:31.933Z,48.23
2019-02-15T19:48:04.279Z,48.12
2019-02-15T19:50:37.751Z,48.06
2019-02-15T19:53:11.111Z,48.32
2019-02-15T19:55:44.714Z,48.59
2019-02-15T19:58:18.279Z,48.54
2019-02-15T20:00:52.110Z,48.70
2019-02-15T20:03:25.608Z,48.99
2019-02-15T20:05:59.277Z,48.80
2019-02-15T20:09:57.900Z,48.65
2019-02-15T20:12:29.877Z,48.86
2019-02-15T20:15:01.865Z,48.90
2019-02-15T20:17:59.254Z,48.98
2019-02-15T20:20:34.002Z,48.80
2019-02-15T20:23:07.277Z,48.81
2019-02-15T20:25:40.650Z,48.86
2019-02-15T20:28:14.586Z,48.86
2019-02-15T20:30:48.945Z,48.95
2019-02-15T20:33:20.856Z,48.97
2019-02-15T20:35:54.100Z,49.11
2019-02-15T20:38:27.569Z,49.07
2019-02-15T20:41:00.934Z,48.90
2019-02-15T20:43:32.858Z,48.90
2019-02-15T20:46:06.101Z,49.25
2019-02-15T20:48:40.536Z,49.27
2019-02-15T20:51:13.935Z,49.44
2019-02-15T20:53:45.857Z,49.64
2019-02-15T20:56:18.949Z,50.18
2019-02-15T20:58:52.273Z,50.28
2019-02-15T21:01:25.704Z,50.58
2019-02-15T21:03:59.240Z,50.58
2019-02-15T21:06:32.784Z,50.01
2019-02-15T21:09:06.555Z,50.01
2019-02-15T21:11:39.936Z,49.81
2019-02-15T21:14:13.277Z,50.04
2019-02-15T21:16:46.742Z,50.58
2019-02-15T21:19:19.939Z,50.58
2019-02-15T21:21:55.597Z,50.59
2019-02-15T21:24:30.275Z,50.66
2019-02-15T21:27:03.691Z,50.87
2019-02-15T21:29:37.289Z,50.87
2019-02-15T21:32:10.908Z,50.67
2019-02-15T21:34:43.295Z,50.67
2019-02-15T21:37:19.288Z,50.36
2019-02-15T21:39:52.725Z,50.36
2019-02-15T21:42:25.940Z,50.63
2019-02-15T21:44:57.995Z,50.73
2019-02-15T21:47:31.291Z,50.66
2019-02-15T21:50:04.733Z,51.25
2019-02-15T21:52:44.305Z,51.25
2019-02-15T21:55:12.700Z,51.11
2019-02-15T21:57:46.128Z,50.96
2019-02-15T22:00:22.290Z,50.90
2019-02-15T22:02:55.672Z,51.07
2019-02-15T22:05:28.945Z,51.07
2019-02-15T22:08:00.844Z,51.35
2019-02-15T22:10:33.943Z,51.52
2019-02-15T22:13:05.770Z,51.46
2019-02-15T22:15:38.943Z,51.55
2019-02-15T22:18:10.837Z,51.38
2019-02-15T22:20:44.086Z,51.26
2019-02-15T22:23:17.771Z,51.79
2019-02-15T22:25:51.094Z,51.79
2019-02-15T22:28:24.689Z,51.87
2019-02-15T22:30:57.953Z,51.78
2019-02-15T22:33:31.759Z,52.01
2019-02-15T22:36:05.278Z,51.94
2019-02-15T22:38:38.648Z,52.20
2019-02-15T22:41:16.282Z,52.20
2019-02-15T22:45:52.899Z,51.67
2019-02-15T22:48:26.262Z,51.59
2019-02-15T22:50:59.733Z,52.75
2019-02-15T22:53:32.950Z,52.75
2019-02-15T22:56:04.696Z,52.63
2019-02-15T22:58:38.072Z,52.21
2019-02-15T23:01:18.762Z,52.09
2019-02-15T23:03:52.287Z,52.06
2019-02-15T23:08:44.283Z,52.45
2019-02-15T23:11:19.872Z,52.49
2019-02-15T23:13:53.285Z,52.49
2019-02-15T23:16:27.320Z,52.84
2019-02-15T23:19:00.677Z,52.80
2019-02-15T23:21:33.942Z,53.01
2019-02-15T23:24:07.171Z,53.01
2019-02-15T23:26:39.064Z,52.85
2019-02-15T23:29:11.026Z,52.85
2019-02-15T23:31:44.137Z,52.95
2019-02-15T23:34:15.991Z,53.05
2019-02-15T23:36:47.874Z,53.09
2019-02-15T23:39:21.264Z,53.14
2019-02-15T23:41:54.637Z,53.35
2019-02-15T23:44:27.940Z,53.35
2019-02-15T23:47:01.283Z,53.36
2019-02-15T23:49:34.698Z,53.85
2019-02-15T23:52:07.954Z,53.85
2019-02-15T23:54:41.429Z,53.97
2019-02-15T23:57:14.757Z,53.81
2019-02-15T23:59:48.090Z,53.89
